sensor_id;sensor_type;location;lat;lon;timestamp;P1;durP1;ratioP1;P2;durP2;ratioP2
3175;SDS011;1599;51.564;6.990;2022-07-29T00:00:59;5.57;;;2.07;;
3175;SDS011;1599;51.564;6.990;2022-07-29T00:03:25;7.50;;;2.00;;
3175;SDS011;1599;51.564;6.990;2022-07-29T00:05:50;5.50;;;2.23;;
3175;SDS011;1599;51.564;6.990;2022-07-29T00:08:18;7.30;;;2.37;;
3175;SDS011;1599;51.564;6.990;2022-07-29T00:10:44;4.17;;;2.30;;
3175;SDS011;1599;51.564;6.990;2022-07-29T00:13:10;5.60;;;1.90;;
3175;SDS011;1599;51.564;6.990;2022-07-29T00:15:36;8.30;;;2.43;;
3175;SDS011;1599;51.564;6.990;2022-07-29T00:18:02;5.00;;;2.20;;
3175;SDS011;1599;51.564;6.990;2022-07-29T00:20:28;5.07;;;2.10;;
3175;SDS011;1599;51.564;6.990;2022-07-29T00:22:54;6.43;;;2.10;;
3175;SDS011;1599;51.564;6.990;2022-07-29T00:25:20;3.13;;;1.80;;
3175;SDS011;1599;51.564;6.990;2022-07-29T00:27:45;3.30;;;2.03;;
3175;SDS011;1599;51.564;6.990;2022-07-29T00:30:11;5.27;;;2.10;;
3175;SDS011;1599;51.564;6.990;2022-07-29T00:32:37;5.70;;;1.90;;
3175;SDS011;1599;51.564;6.990;2022-07-29T00:35:03;8.60;;;2.10;;
3175;SDS011;1599;51.564;6.990;2022-07-29T00:37:48;4.40;;;2.10;;
3175;SDS011;1599;51.564;6.990;2022-07-29T00:40:14;4.17;;;2.10;;
3175;SDS011;1599;51.564;6.990;2022-07-29T00:42:44;3.00;;;2.03;;
3175;SDS011;1599;51.564;6.990;2022-07-29T00:45:11;3.60;;;1.90;;
3175;SDS011;1599;51.564;6.990;2022-07-29T00:47:38;4.07;;;2.20;;
3175;SDS011;1599;51.564;6.990;2022-07-29T00:50:05;3.33;;;2.13;;
3175;SDS011;1599;51.564;6.990;2022-07-29T00:52:34;3.60;;;2.47;;
3175;SDS011;1599;51.564;6.990;2022-07-29T00:55:03;3.20;;;1.80;;
3175;SDS011;1599;51.564;6.990;2022-07-29T00:57:30;5.73;;;2.53;;
3175;SDS011;1599;51.564;6.990;2022-07-29T00:59:56;5.17;;;2.10;;
3175;SDS011;1599;51.564;6.990;2022-07-29T01:02:22;4.83;;;2.03;;
3175;SDS011;1599;51.564;6.990;2022-07-29T01:04:48;3.43;;;1.97;;
3175;SDS011;1599;51.564;6.990;2022-07-29T01:07:14;4.77;;;2.70;;
3175;SDS011;1599;51.564;6.990;2022-07-29T01:09:41;6.90;;;1.90;;
3175;SDS011;1599;51.564;6.990;2022-07-29T01:12:08;3.80;;;2.00;;
3175;SDS011;1599;51.564;6.990;2022-07-29T01:14:35;3.70;;;1.93;;
3175;SDS011;1599;51.564;6.990;2022-07-29T01:17:04;2.70;;;1.83;;
3175;SDS011;1599;51.564;6.990;2022-07-29T01:22:37;4.33;;;1.63;;
3175;SDS011;1599;51.564;6.990;2022-07-29T01:25:40;5.43;;;1.97;;
3175;SDS011;1599;51.564;6.990;2022-07-29T01:31:24;2.50;;;1.90;;
3175;SDS011;1599;51.564;6.990;2022-07-29T01:34:30;3.87;;;2.10;;
3175;SDS011;1599;51.564;6.990;2022-07-29T01:39:47;6.43;;;2.17;;
3175;SDS011;1599;51.564;6.990;2022-07-29T01:42:26;4.60;;;1.87;;
3175;SDS011;1599;51.564;6.990;2022-07-29T01:45:01;2.63;;;1.80;;
3175;SDS011;1599;51.564;6.990;2022-07-29T01:47:46;5.37;;;2.27;;
3175;SDS011;1599;51.564;6.990;2022-07-29T01:50:28;5.20;;;2.10;;
3175;SDS011;1599;51.564;6.990;2022-07-29T01:53:08;4.30;;;1.70;;
3175;SDS011;1599;51.564;6.990;2022-07-29T01:55:36;2.83;;;1.83;;
3175;SDS011;1599;51.564;6.990;2022-07-29T01:58:07;2.00;;;1.70;;
3175;SDS011;1599;51.564;6.990;2022-07-29T02:00:34;4.43;;;2.53;;
3175;SDS011;1599;51.564;6.990;2022-07-29T02:03:02;6.00;;;2.00;;
3175;SDS011;1599;51.564;6.990;2022-07-29T02:05:34;4.67;;;2.00;;
3175;SDS011;1599;51.564;6.990;2022-07-29T02:08:02;8.17;;;2.57;;
3175;SDS011;1599;51.564;6.990;2022-07-29T02:10:31;3.93;;;1.97;;
3175;SDS011;1599;51.564;6.990;2022-07-29T02:13:00;4.50;;;2.20;;
3175;SDS011;1599;51.564;6.990;2022-07-29T02:15:28;4.20;;;1.90;;
3175;SDS011;1599;51.564;6.990;2022-07-29T02:18:00;3.27;;;2.13;;
3175;SDS011;1599;51.564;6.990;2022-07-29T02:20:36;2.73;;;2.07;;
3175;SDS011;1599;51.564;6.990;2022-07-29T02:23:04;4.43;;;2.70;;
3175;SDS011;1599;51.564;6.990;2022-07-29T02:25:35;7.37;;;2.10;;
3175;SDS011;1599;51.564;6.990;2022-07-29T02:28:02;3.80;;;1.80;;
3175;SDS011;1599;51.564;6.990;2022-07-29T02:30:31;3.70;;;2.17;;
3175;SDS011;1599;51.564;6.990;2022-07-29T02:32:58;6.03;;;2.23;;
3175;SDS011;1599;51.564;6.990;2022-07-29T02:35:24;5.47;;;2.10;;
3175;SDS011;1599;51.564;6.990;2022-07-29T02:37:50;5.37;;;2.60;;
3175;SDS011;1599;51.564;6.990;2022-07-29T02:40:37;3.60;;;2.37;;
3175;SDS011;1599;51.564;6.990;2022-07-29T02:43:05;4.37;;;2.37;;
3175;SDS011;1599;51.564;6.990;2022-07-29T02:45:32;5.20;;;2.20;;
3175;SDS011;1599;51.564;6.990;2022-07-29T02:47:59;3.93;;;2.40;;
3175;SDS011;1599;51.564;6.990;2022-07-29T02:50:38;7.17;;;2.23;;
3175;SDS011;1599;51.564;6.990;2022-07-29T02:53:18;4.77;;;2.20;;
3175;SDS011;1599;51.564;6.990;2022-07-29T02:55:51;5.20;;;2.40;;
3175;SDS011;1599;51.564;6.990;2022-07-29T03:01:04;5.03;;;1.73;;
3175;SDS011;1599;51.564;6.990;2022-07-29T03:03:42;5.13;;;1.90;;
3175;SDS011;1599;51.564;6.990;2022-07-29T03:06:11;3.00;;;1.70;;
3175;SDS011;1599;51.564;6.990;2022-07-29T03:08:40;4.47;;;2.00;;
3175;SDS011;1599;51.564;6.990;2022-07-29T03:11:07;5.37;;;2.40;;
3175;SDS011;1599;51.564;6.990;2022-07-29T03:13:34;3.60;;;1.93;;
3175;SDS011;1599;51.564;6.990;2022-07-29T03:16:01;5.13;;;2.40;;
3175;SDS011;1599;51.564;6.990;2022-07-29T03:18:28;2.67;;;2.17;;
3175;SDS011;1599;51.564;6.990;2022-07-29T03:20:55;9.03;;;2.30;;
3175;SDS011;1599;51.564;6.990;2022-07-29T03:23:21;5.10;;;3.20;;
3175;SDS011;1599;51.564;6.990;2022-07-29T03:25:52;5.80;;;2.30;;
3175;SDS011;1599;51.564;6.990;2022-07-29T03:28:19;5.90;;;2.10;;
3175;SDS011;1599;51.564;6.990;2022-07-29T03:30:45;4.23;;;2.37;;
3175;SDS011;1599;51.564;6.990;2022-07-29T03:33:12;2.97;;;1.90;;
3175;SDS011;1599;51.564;6.990;2022-07-29T03:35:38;2.63;;;2.17;;
3175;SDS011;1599;51.564;6.990;2022-07-29T03:38:04;6.13;;;2.60;;
3175;SDS011;1599;51.564;6.990;2022-07-29T03:40:34;6.03;;;2.40;;
3175;SDS011;1599;51.564;6.990;2022-07-29T03:43:07;3.73;;;2.00;;
3175;SDS011;1599;51.564;6.990;2022-07-29T03:45:35;4.57;;;2.00;;
3175;SDS011;1599;51.564;6.990;2022-07-29T03:48:05;4.13;;;2.23;;
3175;SDS011;1599;51.564;6.990;2022-07-29T03:50:35;4.80;;;2.47;;
3175;SDS011;1599;51.564;6.990;2022-07-29T03:53:02;4.13;;;2.40;;
3175;SDS011;1599;51.564;6.990;2022-07-29T03:55:28;8.00;;;2.47;;
3175;SDS011;1599;51.564;6.990;2022-07-29T03:57:57;4.90;;;2.23;;
3175;SDS011;1599;51.564;6.990;2022-07-29T04:00:25;7.27;;;2.50;;
3175;SDS011;1599;51.564;6.990;2022-07-29T04:02:52;3.47;;;2.17;;
3175;SDS011;1599;51.564;6.990;2022-07-29T04:05:18;4.63;;;2.30;;
3175;SDS011;1599;51.564;6.990;2022-07-29T04:07:45;4.40;;;2.90;;
3175;SDS011;1599;51.564;6.990;2022-07-29T04:10:12;5.20;;;2.37;;
3175;SDS011;1599;51.564;6.990;2022-07-29T04:12:38;4.23;;;2.40;;
3175;SDS011;1599;51.564;6.990;2022-07-29T04:15:04;6.23;;;2.27;;
3175;SDS011;1599;51.564;6.990;2022-07-29T04:17:30;3.40;;;2.33;;
3175;SDS011;1599;51.564;6.990;2022-07-29T04:19:56;4.30;;;2.67;;
3175;SDS011;1599;51.564;6.990;2022-07-29T04:22:22;7.27;;;2.80;;
3175;SDS011;1599;51.564;6.990;2022-07-29T04:24:51;3.43;;;2.63;;
3175;SDS011;1599;51.564;6.990;2022-07-29T04:27:17;3.70;;;2.00;;
3175;SDS011;1599;51.564;6.990;2022-07-29T04:29:42;7.40;;;2.23;;
3175;SDS011;1599;51.564;6.990;2022-07-29T04:32:08;6.57;;;2.23;;
3175;SDS011;1599;51.564;6.990;2022-07-29T04:34:34;5.30;;;2.40;;
3175;SDS011;1599;51.564;6.990;2022-07-29T04:37:00;6.20;;;2.57;;
3175;SDS011;1599;51.564;6.990;2022-07-29T04:39:25;5.63;;;2.67;;
3175;SDS011;1599;51.564;6.990;2022-07-29T04:41:51;5.40;;;2.37;;
3175;SDS011;1599;51.564;6.990;2022-07-29T04:44:17;5.30;;;3.07;;
3175;SDS011;1599;51.564;6.990;2022-07-29T04:46:43;4.70;;;3.40;;
3175;SDS011;1599;51.564;6.990;2022-07-29T04:49:09;10.23;;;3.57;;
3175;SDS011;1599;51.564;6.990;2022-07-29T04:51:35;5.53;;;3.60;;
3175;SDS011;1599;51.564;6.990;2022-07-29T04:54:00;6.80;;;3.47;;
3175;SDS011;1599;51.564;6.990;2022-07-29T04:56:26;3.97;;;3.20;;
3175;SDS011;1599;51.564;6.990;2022-07-29T04:58:52;3.40;;;3.10;;
3175;SDS011;1599;51.564;6.990;2022-07-29T05:01:18;9.00;;;4.27;;
3175;SDS011;1599;51.564;6.990;2022-07-29T05:03:44;11.57;;;4.63;;
3175;SDS011;1599;51.564;6.990;2022-07-29T05:06:11;4.97;;;3.87;;
3175;SDS011;1599;51.564;6.990;2022-07-29T05:08:36;8.53;;;3.57;;
3175;SDS011;1599;51.564;6.990;2022-07-29T05:11:03;5.57;;;3.90;;
3175;SDS011;1599;51.564;6.990;2022-07-29T05:13:29;6.07;;;3.13;;
3175;SDS011;1599;51.564;6.990;2022-07-29T05:15:55;6.23;;;4.00;;
3175;SDS011;1599;51.564;6.990;2022-07-29T05:18:23;5.23;;;4.07;;
3175;SDS011;1599;51.564;6.990;2022-07-29T05:20:49;3.73;;;3.40;;
3175;SDS011;1599;51.564;6.990;2022-07-29T05:23:15;5.97;;;2.77;;
3175;SDS011;1599;51.564;6.990;2022-07-29T05:25:41;5.83;;;3.50;;
3175;SDS011;1599;51.564;6.990;2022-07-29T05:28:07;4.83;;;3.67;;
3175;SDS011;1599;51.564;6.990;2022-07-29T05:30:33;7.00;;;3.50;;
3175;SDS011;1599;51.564;6.990;2022-07-29T05:32:59;5.23;;;3.53;;
3175;SDS011;1599;51.564;6.990;2022-07-29T05:35:24;7.83;;;3.40;;
3175;SDS011;1599;51.564;6.990;2022-07-29T05:37:50;4.13;;;3.10;;
3175;SDS011;1599;51.564;6.990;2022-07-29T05:40:16;5.80;;;3.33;;
3175;SDS011;1599;51.564;6.990;2022-07-29T05:42:41;7.80;;;3.70;;
3175;SDS011;1599;51.564;6.990;2022-07-29T05:45:07;4.93;;;2.90;;
3175;SDS011;1599;51.564;6.990;2022-07-29T05:47:34;4.50;;;3.40;;
3175;SDS011;1599;51.564;6.990;2022-07-29T05:49:59;7.97;;;3.33;;
3175;SDS011;1599;51.564;6.990;2022-07-29T05:52:25;6.83;;;3.50;;
3175;SDS011;1599;51.564;6.990;2022-07-29T05:54:51;7.07;;;3.40;;
3175;SDS011;1599;51.564;6.990;2022-07-29T05:57:18;7.30;;;3.57;;
3175;SDS011;1599;51.564;6.990;2022-07-29T05:59:46;9.53;;;4.10;;
3175;SDS011;1599;51.564;6.990;2022-07-29T06:02:13;4.33;;;3.30;;
3175;SDS011;1599;51.564;6.990;2022-07-29T06:04:39;6.90;;;3.53;;
3175;SDS011;1599;51.564;6.990;2022-07-29T06:07:04;5.13;;;3.70;;
3175;SDS011;1599;51.564;6.990;2022-07-29T06:09:31;6.40;;;3.40;;
3175;SDS011;1599;51.564;6.990;2022-07-29T06:11:57;3.80;;;3.40;;
3175;SDS011;1599;51.564;6.990;2022-07-29T06:14:23;5.97;;;4.03;;
3175;SDS011;1599;51.564;6.990;2022-07-29T06:16:51;10.43;;;3.40;;
3175;SDS011;1599;51.564;6.990;2022-07-29T06:19:18;5.83;;;4.10;;
3175;SDS011;1599;51.564;6.990;2022-07-29T06:21:44;16.57;;;4.00;;
3175;SDS011;1599;51.564;6.990;2022-07-29T06:24:12;7.57;;;4.47;;
3175;SDS011;1599;51.564;6.990;2022-07-29T06:26:40;8.70;;;4.07;;
3175;SDS011;1599;51.564;6.990;2022-07-29T06:29:06;7.50;;;4.07;;
3175;SDS011;1599;51.564;6.990;2022-07-29T06:31:32;8.20;;;4.33;;
3175;SDS011;1599;51.564;6.990;2022-07-29T06:33:58;4.53;;;3.60;;
3175;SDS011;1599;51.564;6.990;2022-07-29T06:36:24;6.80;;;3.50;;
3175;SDS011;1599;51.564;6.990;2022-07-29T06:38:50;6.80;;;4.17;;
3175;SDS011;1599;51.564;6.990;2022-07-29T06:41:16;13.27;;;5.03;;
3175;SDS011;1599;51.564;6.990;2022-07-29T06:43:43;9.90;;;4.10;;
3175;SDS011;1599;51.564;6.990;2022-07-29T06:46:11;6.37;;;4.00;;
3175;SDS011;1599;51.564;6.990;2022-07-29T06:48:40;6.50;;;3.70;;
3175;SDS011;1599;51.564;6.990;2022-07-29T06:51:07;7.17;;;4.33;;
3175;SDS011;1599;51.564;6.990;2022-07-29T06:53:35;7.70;;;4.47;;
3175;SDS011;1599;51.564;6.990;2022-07-29T06:56:01;5.80;;;4.30;;
3175;SDS011;1599;51.564;6.990;2022-07-29T06:58:29;7.97;;;4.57;;
3175;SDS011;1599;51.564;6.990;2022-07-29T07:00:56;13.07;;;5.20;;
3175;SDS011;1599;51.564;6.990;2022-07-29T07:03:23;6.27;;;4.13;;
3175;SDS011;1599;51.564;6.990;2022-07-29T07:05:49;5.03;;;4.40;;
3175;SDS011;1599;51.564;6.990;2022-07-29T07:08:17;9.87;;;4.17;;
3175;SDS011;1599;51.564;6.990;2022-07-29T07:10:44;7.97;;;4.67;;
3175;SDS011;1599;51.564;6.990;2022-07-29T07:13:10;8.10;;;4.53;;
3175;SDS011;1599;51.564;6.990;2022-07-29T07:15:36;6.17;;;4.20;;
3175;SDS011;1599;51.564;6.990;2022-07-29T07:18:03;7.67;;;4.10;;
3175;SDS011;1599;51.564;6.990;2022-07-29T07:20:33;7.17;;;4.80;;
3175;SDS011;1599;51.564;6.990;2022-07-29T07:23:00;5.40;;;3.83;;
3175;SDS011;1599;51.564;6.990;2022-07-29T07:25:26;13.63;;;4.20;;
3175;SDS011;1599;51.564;6.990;2022-07-29T07:27:52;4.40;;;3.63;;
3175;SDS011;1599;51.564;6.990;2022-07-29T07:30:17;8.67;;;4.40;;
3175;SDS011;1599;51.564;6.990;2022-07-29T07:32:43;7.70;;;4.03;;
3175;SDS011;1599;51.564;6.990;2022-07-29T07:35:09;5.37;;;4.03;;
3175;SDS011;1599;51.564;6.990;2022-07-29T07:37:36;7.43;;;3.80;;
3175;SDS011;1599;51.564;6.990;2022-07-29T07:40:05;10.97;;;4.40;;
3175;SDS011;1599;51.564;6.990;2022-07-29T07:42:33;10.30;;;5.60;;
3175;SDS011;1599;51.564;6.990;2022-07-29T07:44:59;6.07;;;3.77;;
3175;SDS011;1599;51.564;6.990;2022-07-29T07:47:24;4.93;;;3.53;;
3175;SDS011;1599;51.564;6.990;2022-07-29T07:49:51;5.73;;;3.87;;
3175;SDS011;1599;51.564;6.990;2022-07-29T07:52:18;8.63;;;3.90;;
3175;SDS011;1599;51.564;6.990;2022-07-29T07:54:46;5.03;;;3.63;;
3175;SDS011;1599;51.564;6.990;2022-07-29T07:57:13;10.83;;;4.00;;
3175;SDS011;1599;51.564;6.990;2022-07-29T07:59:40;7.17;;;3.87;;
3175;SDS011;1599;51.564;6.990;2022-07-29T08:02:07;6.40;;;3.90;;
3175;SDS011;1599;51.564;6.990;2022-07-29T08:04:33;5.77;;;4.50;;
3175;SDS011;1599;51.564;6.990;2022-07-29T08:06:59;6.30;;;4.10;;
3175;SDS011;1599;51.564;6.990;2022-07-29T08:09:26;6.27;;;4.10;;
3175;SDS011;1599;51.564;6.990;2022-07-29T08:11:53;5.93;;;3.87;;
3175;SDS011;1599;51.564;6.990;2022-07-29T08:14:20;5.63;;;3.70;;
3175;SDS011;1599;51.564;6.990;2022-07-29T08:16:46;7.50;;;3.80;;
3175;SDS011;1599;51.564;6.990;2022-07-29T08:19:13;6.70;;;4.20;;
3175;SDS011;1599;51.564;6.990;2022-07-29T08:21:38;7.07;;;3.90;;
3175;SDS011;1599;51.564;6.990;2022-07-29T08:24:05;5.97;;;3.57;;
3175;SDS011;1599;51.564;6.990;2022-07-29T08:26:50;6.53;;;3.57;;
3175;SDS011;1599;51.564;6.990;2022-07-29T08:29:15;7.70;;;3.80;;
3175;SDS011;1599;51.564;6.990;2022-07-29T08:31:41;3.97;;;3.43;;
3175;SDS011;1599;51.564;6.990;2022-07-29T08:34:07;6.53;;;4.57;;
3175;SDS011;1599;51.564;6.990;2022-07-29T08:36:33;7.03;;;4.17;;
3175;SDS011;1599;51.564;6.990;2022-07-29T08:38:59;5.33;;;3.57;;
3175;SDS011;1599;51.564;6.990;2022-07-29T08:41:26;7.20;;;3.70;;
3175;SDS011;1599;51.564;6.990;2022-07-29T08:43:52;7.40;;;4.00;;
3175;SDS011;1599;51.564;6.990;2022-07-29T08:46:19;5.50;;;3.80;;
3175;SDS011;1599;51.564;6.990;2022-07-29T08:48:45;8.67;;;4.80;;
3175;SDS011;1599;51.564;6.990;2022-07-29T08:51:13;6.10;;;3.73;;
3175;SDS011;1599;51.564;6.990;2022-07-29T08:53:42;7.03;;;4.57;;
3175;SDS011;1599;51.564;6.990;2022-07-29T08:56:12;5.10;;;4.00;;
3175;SDS011;1599;51.564;6.990;2022-07-29T08:58:41;4.87;;;3.83;;
3175;SDS011;1599;51.564;6.990;2022-07-29T09:01:07;11.67;;;5.43;;
3175;SDS011;1599;51.564;6.990;2022-07-29T09:03:36;6.93;;;4.80;;
3175;SDS011;1599;51.564;6.990;2022-07-29T09:06:04;6.93;;;5.27;;
3175;SDS011;1599;51.564;6.990;2022-07-29T09:08:31;9.47;;;5.80;;
3175;SDS011;1599;51.564;6.990;2022-07-29T09:10:58;7.10;;;6.20;;
3175;SDS011;1599;51.564;6.990;2022-07-29T09:13:26;8.77;;;6.50;;
3175;SDS011;1599;51.564;6.990;2022-07-29T09:15:52;6.50;;;5.70;;
3175;SDS011;1599;51.564;6.990;2022-07-29T09:18:37;11.57;;;6.80;;
3175;SDS011;1599;51.564;6.990;2022-07-29T09:21:15;11.97;;;5.40;;
3175;SDS011;1599;51.564;6.990;2022-07-29T09:24:02;11.33;;;6.10;;
3175;SDS011;1599;51.564;6.990;2022-07-29T09:26:38;6.50;;;5.47;;
3175;SDS011;1599;51.564;6.990;2022-07-29T09:29:09;11.30;;;6.20;;
3175;SDS011;1599;51.564;6.990;2022-07-29T09:31:44;7.20;;;5.70;;
3175;SDS011;1599;51.564;6.990;2022-07-29T09:34:13;7.70;;;6.00;;
3175;SDS011;1599;51.564;6.990;2022-07-29T09:36:43;6.40;;;5.70;;
3175;SDS011;1599;51.564;6.990;2022-07-29T09:39:11;5.77;;;5.20;;
3175;SDS011;1599;51.564;6.990;2022-07-29T09:41:52;7.60;;;5.73;;
3175;SDS011;1599;51.564;6.990;2022-07-29T09:44:20;7.93;;;5.70;;
3175;SDS011;1599;51.564;6.990;2022-07-29T09:46:54;12.07;;;5.80;;
3175;SDS011;1599;51.564;6.990;2022-07-29T09:49:34;9.53;;;5.80;;
3175;SDS011;1599;51.564;6.990;2022-07-29T09:52:15;8.33;;;5.73;;
3175;SDS011;1599;51.564;6.990;2022-07-29T09:54:40;10.63;;;6.43;;
3175;SDS011;1599;51.564;6.990;2022-07-29T09:57:21;9.07;;;6.20;;
3175;SDS011;1599;51.564;6.990;2022-07-29T10:00:38;9.60;;;7.37;;
3175;SDS011;1599;51.564;6.990;2022-07-29T10:02:48;9.93;;;8.00;;
3175;SDS011;1599;51.564;6.990;2022-07-29T10:07:49;12.03;;;6.73;;
3175;SDS011;1599;51.564;6.990;2022-07-29T10:12:56;7.03;;;6.33;;
3175;SDS011;1599;51.564;6.990;2022-07-29T10:15:27;9.97;;;6.63;;
3175;SDS011;1599;51.564;6.990;2022-07-29T10:17:55;8.03;;;7.03;;
3175;SDS011;1599;51.564;6.990;2022-07-29T10:20:22;12.47;;;7.00;;
3175;SDS011;1599;51.564;6.990;2022-07-29T10:22:50;8.70;;;6.37;;
3175;SDS011;1599;51.564;6.990;2022-07-29T10:25:17;14.20;;;7.13;;
3175;SDS011;1599;51.564;6.990;2022-07-29T10:27:44;10.17;;;6.30;;
3175;SDS011;1599;51.564;6.990;2022-07-29T10:30:12;12.50;;;6.87;;
3175;SDS011;1599;51.564;6.990;2022-07-29T10:44:19;11.53;;;5.47;;
3175;SDS011;1599;51.564;6.990;2022-07-29T10:46:48;7.20;;;6.00;;
3175;SDS011;1599;51.564;6.990;2022-07-29T10:49:19;14.30;;;6.60;;
3175;SDS011;1599;51.564;6.990;2022-07-29T11:05:20;7.60;;;6.00;;
3175;SDS011;1599;51.564;6.990;2022-07-29T11:10:53;8.30;;;5.93;;
3175;SDS011;1599;51.564;6.990;2022-07-29T11:13:45;9.73;;;6.50;;
3175;SDS011;1599;51.564;6.990;2022-07-29T11:16:15;10.87;;;6.80;;
3175;SDS011;1599;51.564;6.990;2022-07-29T11:21:47;9.30;;;7.00;;
3175;SDS011;1599;51.564;6.990;2022-07-29T11:24:19;7.80;;;6.90;;
3175;SDS011;1599;51.564;6.990;2022-07-29T11:29:38;7.47;;;6.60;;
3175;SDS011;1599;51.564;6.990;2022-07-29T11:32:16;6.80;;;6.00;;
3175;SDS011;1599;51.564;6.990;2022-07-29T11:34:44;8.63;;;5.93;;
3175;SDS011;1599;51.564;6.990;2022-07-29T11:37:14;6.63;;;4.67;;
3175;SDS011;1599;51.564;6.990;2022-07-29T11:45:03;8.90;;;5.00;;
3175;SDS011;1599;51.564;6.990;2022-07-29T11:47:36;5.60;;;4.27;;
3175;SDS011;1599;51.564;6.990;2022-07-29T11:50:13;8.40;;;5.47;;
3175;SDS011;1599;51.564;6.990;2022-07-29T11:53:00;12.03;;;5.20;;
3175;SDS011;1599;51.564;6.990;2022-07-29T11:55:28;6.77;;;4.87;;
3175;SDS011;1599;51.564;6.990;2022-07-29T11:57:57;9.40;;;5.57;;
3175;SDS011;1599;51.564;6.990;2022-07-29T12:02:59;9.70;;;4.90;;
3175;SDS011;1599;51.564;6.990;2022-07-29T12:05:38;8.07;;;3.80;;
3175;SDS011;1599;51.564;6.990;2022-07-29T12:11:41;9.07;;;4.23;;
3175;SDS011;1599;51.564;6.990;2022-07-29T12:14:07;7.20;;;4.30;;
3175;SDS011;1599;51.564;6.990;2022-07-29T12:16:36;5.93;;;3.67;;
3175;SDS011;1599;51.564;6.990;2022-07-29T12:19:02;4.80;;;3.03;;
3175;SDS011;1599;51.564;6.990;2022-07-29T12:21:49;6.50;;;3.70;;
3175;SDS011;1599;51.564;6.990;2022-07-29T12:24:18;6.00;;;3.30;;
3175;SDS011;1599;51.564;6.990;2022-07-29T12:26:51;4.30;;;3.20;;
3175;SDS011;1599;51.564;6.990;2022-07-29T12:29:21;5.57;;;4.40;;
3175;SDS011;1599;51.564;6.990;2022-07-29T12:31:51;7.53;;;4.37;;
3175;SDS011;1599;51.564;6.990;2022-07-29T12:34:25;8.23;;;3.90;;
3175;SDS011;1599;51.564;6.990;2022-07-29T12:36:53;7.33;;;5.13;;
3175;SDS011;1599;51.564;6.990;2022-07-29T12:39:20;7.33;;;4.37;;
3175;SDS011;1599;51.564;6.990;2022-07-29T12:41:46;5.40;;;4.10;;
3175;SDS011;1599;51.564;6.990;2022-07-29T12:44:12;11.03;;;4.30;;
3175;SDS011;1599;51.564;6.990;2022-07-29T12:46:38;5.27;;;4.23;;
3175;SDS011;1599;51.564;6.990;2022-07-29T12:49:03;6.60;;;4.50;;
3175;SDS011;1599;51.564;6.990;2022-07-29T12:51:36;3.40;;;3.10;;
3175;SDS011;1599;51.564;6.990;2022-07-29T12:56:36;12.17;;;4.30;;
3175;SDS011;1599;51.564;6.990;2022-07-29T13:01:44;6.20;;;4.47;;
3175;SDS011;1599;51.564;6.990;2022-07-29T13:04:24;7.40;;;4.70;;
3175;SDS011;1599;51.564;6.990;2022-07-29T13:06:57;6.03;;;4.77;;
3175;SDS011;1599;51.564;6.990;2022-07-29T13:09:43;7.17;;;5.17;;
3175;SDS011;1599;51.564;6.990;2022-07-29T13:12:13;6.33;;;5.00;;
3175;SDS011;1599;51.564;6.990;2022-07-29T13:14:46;8.87;;;6.07;;
3175;SDS011;1599;51.564;6.990;2022-07-29T13:17:21;5.20;;;4.70;;
3175;SDS011;1599;51.564;6.990;2022-07-29T13:19:49;8.00;;;5.07;;
3175;SDS011;1599;51.564;6.990;2022-07-29T13:22:23;5.07;;;4.40;;
3175;SDS011;1599;51.564;6.990;2022-07-29T13:24:56;9.80;;;5.27;;
3175;SDS011;1599;51.564;6.990;2022-07-29T13:27:28;7.00;;;4.30;;
3175;SDS011;1599;51.564;6.990;2022-07-29T13:29:57;7.97;;;5.80;;
3175;SDS011;1599;51.564;6.990;2022-07-29T13:32:25;8.43;;;4.97;;
3175;SDS011;1599;51.564;6.990;2022-07-29T13:34:53;6.83;;;4.70;;
3175;SDS011;1599;51.564;6.990;2022-07-29T13:37:24;9.07;;;5.33;;
3175;SDS011;1599;51.564;6.990;2022-07-29T13:39:51;7.70;;;4.50;;
3175;SDS011;1599;51.564;6.990;2022-07-29T13:42:18;7.20;;;4.83;;
3175;SDS011;1599;51.564;6.990;2022-07-29T13:44:44;7.10;;;5.63;;
3175;SDS011;1599;51.564;6.990;2022-07-29T13:47:10;10.57;;;7.20;;
3175;SDS011;1599;51.564;6.990;2022-07-29T13:49:36;6.30;;;4.90;;
3175;SDS011;1599;51.564;6.990;2022-07-29T13:52:02;9.10;;;6.07;;
3175;SDS011;1599;51.564;6.990;2022-07-29T13:54:28;10.93;;;7.00;;
3175;SDS011;1599;51.564;6.990;2022-07-29T13:56:54;10.80;;;6.97;;
3175;SDS011;1599;51.564;6.990;2022-07-29T13:59:19;9.10;;;7.30;;
3175;SDS011;1599;51.564;6.990;2022-07-29T14:01:45;9.07;;;6.80;;
3175;SDS011;1599;51.564;6.990;2022-07-29T14:04:11;8.53;;;7.07;;
3175;SDS011;1599;51.564;6.990;2022-07-29T14:06:37;8.50;;;7.13;;
3175;SDS011;1599;51.564;6.990;2022-07-29T14:09:03;8.50;;;6.20;;
3175;SDS011;1599;51.564;6.990;2022-07-29T14:11:33;8.67;;;6.67;;
3175;SDS011;1599;51.564;6.990;2022-07-29T14:14:00;8.73;;;5.50;;
3175;SDS011;1599;51.564;6.990;2022-07-29T14:16:26;7.63;;;6.80;;
3175;SDS011;1599;51.564;6.990;2022-07-29T14:18:52;11.47;;;6.80;;
3175;SDS011;1599;51.564;6.990;2022-07-29T14:21:17;8.80;;;7.60;;
3175;SDS011;1599;51.564;6.990;2022-07-29T14:23:43;11.43;;;7.80;;
3175;SDS011;1599;51.564;6.990;2022-07-29T14:26:09;7.57;;;6.87;;
3175;SDS011;1599;51.564;6.990;2022-07-29T14:28:35;12.63;;;6.57;;
3175;SDS011;1599;51.564;6.990;2022-07-29T14:31:00;9.50;;;7.70;;
3175;SDS011;1599;51.564;6.990;2022-07-29T14:33:26;10.50;;;7.80;;
3175;SDS011;1599;51.564;6.990;2022-07-29T14:35:52;8.43;;;6.70;;
3175;SDS011;1599;51.564;6.990;2022-07-29T14:38:18;12.93;;;8.60;;
3175;SDS011;1599;51.564;6.990;2022-07-29T14:40:44;8.33;;;6.50;;
3175;SDS011;1599;51.564;6.990;2022-07-29T14:43:11;9.97;;;7.97;;
3175;SDS011;1599;51.564;6.990;2022-07-29T14:45:38;9.70;;;7.37;;
3175;SDS011;1599;51.564;6.990;2022-07-29T14:48:06;8.83;;;7.43;;
3175;SDS011;1599;51.564;6.990;2022-07-29T14:50:32;10.80;;;7.20;;
3175;SDS011;1599;51.564;6.990;2022-07-29T14:52:58;7.40;;;6.70;;
3175;SDS011;1599;51.564;6.990;2022-07-29T14:55:25;10.53;;;6.93;;
3175;SDS011;1599;51.564;6.990;2022-07-29T14:57:51;10.23;;;7.10;;
3175;SDS011;1599;51.564;6.990;2022-07-29T15:00:17;9.00;;;5.67;;
3175;SDS011;1599;51.564;6.990;2022-07-29T15:02:43;9.67;;;6.10;;
3175;SDS011;1599;51.564;6.990;2022-07-29T15:05:09;9.10;;;7.83;;
3175;SDS011;1599;51.564;6.990;2022-07-29T15:07:34;9.90;;;7.40;;
3175;SDS011;1599;51.564;6.990;2022-07-29T15:10:00;8.90;;;6.53;;
3175;SDS011;1599;51.564;6.990;2022-07-29T15:12:27;10.07;;;6.17;;
3175;SDS011;1599;51.564;6.990;2022-07-29T15:14:52;9.27;;;7.13;;
3175;SDS011;1599;51.564;6.990;2022-07-29T15:17:18;10.70;;;6.97;;
3175;SDS011;1599;51.564;6.990;2022-07-29T15:19:45;12.83;;;7.50;;
3175;SDS011;1599;51.564;6.990;2022-07-29T15:22:11;11.67;;;6.27;;
3175;SDS011;1599;51.564;6.990;2022-07-29T15:24:36;7.60;;;5.67;;
3175;SDS011;1599;51.564;6.990;2022-07-29T15:27:02;10.60;;;5.80;;
3175;SDS011;1599;51.564;6.990;2022-07-29T15:29:28;8.30;;;6.07;;
3175;SDS011;1599;51.564;6.990;2022-07-29T15:31:54;11.90;;;5.67;;
3175;SDS011;1599;51.564;6.990;2022-07-29T15:34:19;8.80;;;5.10;;
3175;SDS011;1599;51.564;6.990;2022-07-29T15:36:46;9.83;;;6.77;;
3175;SDS011;1599;51.564;6.990;2022-07-29T15:39:12;7.40;;;5.93;;
3175;SDS011;1599;51.564;6.990;2022-07-29T15:41:37;11.10;;;6.07;;
3175;SDS011;1599;51.564;6.990;2022-07-29T15:44:03;13.43;;;5.90;;
3175;SDS011;1599;51.564;6.990;2022-07-29T15:46:29;6.27;;;5.67;;
3175;SDS011;1599;51.564;6.990;2022-07-29T15:49:13;9.03;;;5.10;;
3175;SDS011;1599;51.564;6.990;2022-07-29T15:51:39;7.00;;;5.80;;
3175;SDS011;1599;51.564;6.990;2022-07-29T15:54:05;8.83;;;6.40;;
3175;SDS011;1599;51.564;6.990;2022-07-29T15:56:31;7.00;;;5.20;;
3175;SDS011;1599;51.564;6.990;2022-07-29T15:58:57;10.57;;;6.60;;
3175;SDS011;1599;51.564;6.990;2022-07-29T16:01:23;10.90;;;6.20;;
3175;SDS011;1599;51.564;6.990;2022-07-29T16:03:49;9.30;;;6.70;;
3175;SDS011;1599;51.564;6.990;2022-07-29T16:06:15;9.43;;;5.60;;
3175;SDS011;1599;51.564;6.990;2022-07-29T16:08:41;12.00;;;5.90;;
3175;SDS011;1599;51.564;6.990;2022-07-29T16:11:07;9.03;;;6.17;;
3175;SDS011;1599;51.564;6.990;2022-07-29T16:13:33;8.23;;;6.60;;
3175;SDS011;1599;51.564;6.990;2022-07-29T16:15:59;9.40;;;6.97;;
3175;SDS011;1599;51.564;6.990;2022-07-29T16:18:24;8.93;;;6.30;;
3175;SDS011;1599;51.564;6.990;2022-07-29T16:20:50;8.87;;;6.27;;
3175;SDS011;1599;51.564;6.990;2022-07-29T16:23:16;9.80;;;7.70;;
3175;SDS011;1599;51.564;6.990;2022-07-29T16:25:42;7.57;;;6.70;;
3175;SDS011;1599;51.564;6.990;2022-07-29T16:28:07;7.93;;;7.17;;